createdAt,value
2022-09-06T00:00:53.138Z,100007.88
2022-09-06T00:03:22.543Z,100000.03
2022-09-06T00:05:51.423Z,100005.72
2022-09-06T00:08:19.019Z,100011.38
2022-09-06T00:10:48.587Z,100008.34
2022-09-06T00:13:16.509Z,99994.09
2022-09-06T00:15:44.498Z,100006.53
2022-09-06T00:18:11.832Z,100005.88
2022-09-06T00:20:41.648Z,100003.78
2022-09-06T00:23:09.186Z,100005.78
2022-09-06T00:25:36.801Z,100000.09
2022-09-06T00:28:06.218Z,100003.81
2022-09-06T00:30:34.186Z,99995.69
2022-09-06T00:33:01.357Z,99983.03
2022-09-06T00:35:29.587Z,99992.44
2022-09-06T00:38:01.659Z,99999.66
2022-09-06T00:40:30.666Z,99997.31
2022-09-06T00:42:58.135Z,99990.94
2022-09-06T00:45:28.123Z,99992.25
2022-09-06T00:47:55.763Z,99996.88
2022-09-06T00:50:23.139Z,99992.88
2022-09-06T00:52:52.834Z,99987.53
2022-09-06T00:55:20.826Z,99991.81
2022-09-06T00:57:51.544Z,99999.25
2022-09-06T01:00:20.307Z,99979.63
2022-09-06T01:02:48.920Z,99990.88
2022-09-06T01:05:17.072Z,99981.16
2022-09-06T01:07:44.181Z,99995.06
2022-09-06T01:10:51.409Z,99999.34
2022-09-06T01:13:46.812Z,99991.53
2022-09-06T01:16:19.057Z,99984.56
2022-09-06T01:19:09.598Z,99998.25
2022-09-06T01:21:55.930Z,99990.25
2022-09-06T01:24:41.771Z,100006.28
2022-09-06T01:27:27.246Z,99997.97
2022-09-06T01:30:14.561Z,100002.50
2022-09-06T01:33:13.881Z,99991.88
2022-09-06T01:35:51.321Z,99998.06
2022-09-06T01:38:19.577Z,99993.88
2022-09-06T01:40:46.696Z,99989.59
2022-09-06T01:43:22.588Z,99997.03
2022-09-06T01:46:01.656Z,99982.72
2022-09-06T01:48:51.163Z,99991.00
2022-09-06T01:51:24.523Z,99983.94
2022-09-06T01:53:51.632Z,99983.56
2022-09-06T01:56:30.520Z,99976.28
2022-09-06T01:59:28.477Z,99978.13
2022-09-06T02:02:11.077Z,99974.06
2022-09-06T02:04:53.078Z,99959.34
2022-09-06T02:07:29.933Z,99970.03
2022-09-06T02:10:24.770Z,99963.28
2022-09-06T02:12:56.793Z,99966.88
2022-09-06T02:15:29.667Z,99920.84
2022-09-06T02:18:04.795Z,99955.66
2022-09-06T02:20:35.529Z,99949.16
2022-09-06T02:23:06.595Z,99960.63
2022-09-06T02:25:44.323Z,99951.72
2022-09-06T02:28:12.924Z,99957.75
2022-09-06T02:30:45.494Z,99959.38
2022-09-06T02:33:21.607Z,99970.38
2022-09-06T02:35:52.007Z,99966.66
2022-09-06T02:38:22.745Z,99966.88
2022-09-06T02:40:55.070Z,99948.09
2022-09-06T02:43:25.846Z,99956.81
2022-09-06T02:45:53.139Z,99957.03
2022-09-06T02:48:20.400Z,99959.13
2022-09-06T02:50:47.514Z,99953.94
2022-09-06T02:53:19.138Z,99951.41
2022-09-06T02:55:48.821Z,99943.06
2022-09-06T02:58:16.454Z,99946.00
2022-09-06T03:00:44.177Z,99940.22
2022-09-06T03:03:12.191Z,99946.81
2022-09-06T03:05:39.417Z,99943.69
2022-09-06T03:08:06.601Z,99939.69
2022-09-06T03:10:34.114Z,99960.06
2022-09-06T03:13:01.271Z,99962.03
2022-09-06T03:15:28.469Z,99967.81
2022-09-06T03:17:59.803Z,99966.06
2022-09-06T03:20:27.163Z,99973.72
2022-09-06T03:22:54.353Z,99969.09
2022-09-06T03:25:21.985Z,99970.03
2022-09-06T03:27:49.261Z,99957.03
2022-09-06T03:30:16.527Z,99959.09
2022-09-06T03:32:43.894Z,99963.69
2022-09-06T03:35:11.810Z,99961.06
2022-09-06T03:37:39.087Z,99960.97
2022-09-06T03:40:06.831Z,99960.56
2022-09-06T03:42:34.228Z,99965.97
2022-09-06T03:45:01.537Z,99957.13
2022-09-06T03:47:30.954Z,99948.53
2022-09-06T03:49:58.138Z,99961.19
2022-09-06T03:52:25.284Z,99972.50
2022-09-06T03:54:52.710Z,99977.09
2022-09-06T03:57:20.099Z,99973.50
2022-09-06T03:59:47.094Z,99995.25
2022-09-06T04:02:14.871Z,99979.94
2022-09-06T04:04:41.980Z,99985.28
2022-09-06T04:07:09.338Z,99985.16
2022-09-06T04:09:37.256Z,99982.22
2022-09-06T04:12:05.106Z,99997.72
2022-09-06T04:14:32.352Z,99999.38
2022-09-06T04:16:59.864Z,100003.91
2022-09-06T04:19:27.291Z,100003.09
2022-09-06T04:21:54.840Z,99992.47
2022-09-06T04:24:22.594Z,100008.41
2022-09-06T04:26:50.219Z,100007.59
2022-09-06T04:29:17.394Z,99995.00
2022-09-06T04:31:44.703Z,99994.44
2022-09-06T04:34:11.991Z,99981.97
2022-09-06T04:36:39.432Z,99968.63
2022-09-06T04:39:06.616Z,99981.72
2022-09-06T04:41:33.833Z,99984.34
2022-09-06T04:44:01.137Z,99992.81
2022-09-06T04:46:30.316Z,99997.84
2022-09-06T04:48:58.113Z,100001.31
2022-09-06T04:51:25.923Z,100002.31
2022-09-06T04:53:53.784Z,99998.94
2022-09-06T04:56:23.742Z,100011.00
2022-09-06T04:58:54.502Z,100007.28
2022-09-06T05:01:21.854Z,100006.59
2022-09-06T05:03:49.549Z,100003.69
2022-09-06T05:06:22.983Z,100002.41
2022-09-06T05:08:50.863Z,100007.75
2022-09-06T05:11:18.730Z,100003.81
2022-09-06T05:13:47.605Z,100011.69
2022-09-06T05:16:15.417Z,99999.41
2022-09-06T05:18:42.954Z,100016.94
2022-09-06T05:21:11.648Z,100007.25
2022-09-06T05:23:39.204Z,99994.91
2022-09-06T05:26:07.026Z,99999.22
2022-09-06T05:28:34.254Z,99993.53
2022-09-06T05:31:09.369Z,99999.56
2022-09-06T05:33:36.996Z,100008.88
2022-09-06T05:36:05.782Z,99998.19
2022-09-06T05:38:33.820Z,99996.56
2022-09-06T05:41:01.268Z,100003.91
2022-09-06T05:43:28.501Z,100006.53
2022-09-06T05:45:55.842Z,99998.47
2022-09-06T05:48:23.055Z,100002.19
2022-09-06T05:51:03.674Z,99995.75
2022-09-06T05:53:39.359Z,99985.19
2022-09-06T05:56:07.475Z,100000.78
2022-09-06T05:58:34.995Z,99976.91
2022-09-06T06:01:29.952Z,99989.31
2022-09-06T06:04:15.780Z,99992.44
2022-09-06T06:06:43.099Z,99983.25
2022-09-06T06:09:10.364Z,99982.78
2022-09-06T06:11:38.055Z,99990.78
2022-09-06T06:14:05.628Z,99991.25
2022-09-06T06:16:33.500Z,99990.31
2022-09-06T06:19:01.040Z,99966.66
2022-09-06T06:21:29.974Z,99993.81
2022-09-06T06:24:03.076Z,99980.34
2022-09-06T06:26:32.908Z,99983.38
2022-09-06T06:29:02.156Z,99979.19
2022-09-06T06:31:31.392Z,99990.91
2022-09-06T06:33:59.586Z,100003.19
2022-09-06T06:36:30.905Z,100009.00
2022-09-06T06:38:58.754Z,99998.22
2022-09-06T06:41:28.918Z,100007.97
2022-09-06T06:43:59.148Z,100018.66
2022-09-06T06:46:29.291Z,100018.88
2022-09-06T06:48:56.621Z,100016.97
2022-09-06T06:51:26.697Z,100024.50
2022-09-06T06:53:54.229Z,100019.72
2022-09-06T06:56:30.280Z,100016.38
2022-09-06T06:59:01.870Z,100008.75
2022-09-06T07:01:36.105Z,100014.63
2022-09-06T07:04:08.814Z,100010.47
2022-09-06T07:12:32.497Z,100016.56
2022-09-06T07:15:00.513Z,100025.38
2022-09-06T07:17:28.683Z,100020.16
2022-09-06T07:22:40.527Z,100025.91
2022-09-06T07:25:09.339Z,100023.56
2022-09-06T07:27:52.852Z,100021.50
2022-09-06T07:30:20.547Z,100021.03
2022-09-06T07:32:48.179Z,100018.00
2022-09-06T07:35:15.590Z,100028.16
2022-09-06T07:37:42.902Z,100021.09
2022-09-06T07:40:10.697Z,100026.91
2022-09-06T07:42:38.740Z,100029.66
2022-09-06T07:45:06.183Z,100023.34
2022-09-06T07:53:14.115Z,100024.16
2022-09-06T07:55:43.395Z,100029.53
2022-09-06T07:58:11.314Z,100032.50
2022-09-06T08:00:43.175Z,100019.06
2022-09-06T08:03:13.652Z,100019.13
2022-09-06T08:11:16.154Z,100002.34
2022-09-06T08:13:44.205Z,100011.19
2022-09-06T08:16:12.636Z,100007.69
2022-09-06T08:18:40.335Z,100010.84
2022-09-06T08:21:13.566Z,100004.44
2022-09-06T08:23:50.402Z,100011.81
2022-09-06T08:26:21.003Z,100001.69
2022-09-06T08:29:00.360Z,100004.25
2022-09-06T08:31:30.509Z,99993.91
2022-09-06T08:33:59.397Z,99934.97
2022-09-06T08:36:29.663Z,100007.81
2022-09-06T08:38:57.827Z,100004.34
2022-09-06T08:41:26.523Z,99997.66
2022-09-06T08:46:58.133Z,99992.25
2022-09-06T08:49:31.975Z,99994.81
2022-09-06T08:52:12.378Z,99969.34
2022-09-06T08:55:03.775Z,99992.84
2022-09-06T08:58:08.918Z,99986.84
2022-09-06T09:00:38.624Z,99986.06
2022-09-06T09:03:17.120Z,99973.34
2022-09-06T09:05:50.686Z,99974.50
2022-09-06T09:08:53.661Z,99980.84
2022-09-06T09:11:25.569Z,99977.41
2022-09-06T09:14:10.661Z,99971.69
2022-09-06T09:16:38.494Z,99978.13
2022-09-06T09:19:06.633Z,99962.13
2022-09-06T09:21:37.527Z,99917.72
2022-09-06T09:24:13.471Z,99950.81
2022-09-06T09:27:13.951Z,99945.66
2022-09-06T09:32:45.224Z,99941.53
2022-09-06T09:35:21.626Z,99935.16
2022-09-06T09:37:59.445Z,99934.44
2022-09-06T09:40:49.414Z,99924.75
2022-09-06T09:43:19.594Z,99934.00
2022-09-06T09:45:58.786Z,99934.34
2022-09-06T09:48:28.178Z,99926.75
2022-09-06T09:50:56.185Z,99924.47
2022-09-06T09:53:24.402Z,99927.63
2022-09-06T09:55:59.336Z,99929.56
2022-09-06T09:58:32.249Z,99923.94
2022-09-06T10:01:21.851Z,99925.91
2022-09-06T10:09:35.896Z,99922.44
2022-09-06T10:12:03.814Z,99924.88
2022-09-06T10:14:42.076Z,99921.59
2022-09-06T10:17:19.807Z,99925.31
2022-09-06T10:19:47.546Z,99918.88
2022-09-06T10:22:26.138Z,99917.72
2022-09-06T10:25:28.728Z,99918.56
2022-09-06T10:28:12.367Z,99921.81
2022-09-06T10:31:02.391Z,99910.94
2022-09-06T10:33:39.548Z,99911.31
2022-09-06T10:36:07.871Z,99903.38
2022-09-06T10:38:43.893Z,99912.28
2022-09-06T10:41:13.738Z,99905.84
2022-09-06T10:43:51.070Z,99903.97
2022-09-06T10:46:26.509Z,99883.50
2022-09-06T10:48:54.157Z,99890.03
2022-09-06T10:51:50.155Z,99884.25
2022-09-06T10:54:23.204Z,99881.81
2022-09-06T10:56:57.467Z,99890.31
2022-09-06T11:02:16.695Z,99882.47
2022-09-06T11:10:35.058Z,99870.41
2022-09-06T11:13:32.465Z,99871.63
2022-09-06T11:16:05.911Z,99868.41
2022-09-06T11:18:37.870Z,99857.06
2022-09-06T11:21:12.851Z,99867.16
2022-09-06T11:24:16.081Z,99854.19
2022-09-06T11:27:02.750Z,99864.34
2022-09-06T11:29:32.044Z,99860.78
2022-09-06T11:32:18.110Z,99863.59
2022-09-06T11:34:58.014Z,99858.78
2022-09-06T11:37:33.040Z,99865.25
2022-09-06T11:42:55.763Z,99856.44
2022-09-06T11:45:45.924Z,99851.19
2022-09-06T11:48:27.019Z,99852.41
2022-09-06T11:50:59.452Z,99848.38
2022-09-06T11:53:35.154Z,99839.53
2022-09-06T11:56:02.640Z,99841.16
2022-09-06T11:58:59.889Z,99823.81
2022-09-06T12:01:26.973Z,99840.34
2022-09-06T12:06:37.969Z,99840.38
2022-09-06T12:09:29.556Z,99823.09
2022-09-06T12:11:59.329Z,99825.09
2022-09-06T12:14:26.600Z,99823.47
2022-09-06T12:17:05.310Z,99824.69
2022-09-06T12:19:52.181Z,99820.66
2022-09-06T12:22:32.881Z,99810.63
2022-09-06T12:25:05.548Z,99809.47
2022-09-06T12:27:40.110Z,99803.38
2022-09-06T12:30:12.155Z,99806.66
2022-09-06T12:32:52.519Z,99797.41
2022-09-06T12:38:18.633Z,99797.00
2022-09-06T12:40:48.782Z,99790.56
2022-09-06T12:43:17.678Z,99783.72
2022-09-06T12:45:47.581Z,99777.66
2022-09-06T12:48:28.500Z,99783.28
2022-09-06T12:51:22.046Z,99794.56
2022-09-06T12:54:00.113Z,99796.56
2022-09-06T12:56:29.607Z,99788.09
2022-09-06T12:59:14.375Z,99801.78
2022-09-06T13:01:49.636Z,99792.13
2022-09-06T13:04:42.658Z,99797.78
2022-09-06T13:07:12.999Z,99786.50
2022-09-06T13:09:44.727Z,99741.44
2022-09-06T13:12:33.481Z,99790.94
2022-09-06T13:15:25.362Z,99786.91
2022-09-06T13:17:55.324Z,99784.91
2022-09-06T13:20:29.388Z,99794.16
2022-09-06T13:23:11.588Z,99783.28
2022-09-06T13:25:50.780Z,99778.06
2022-09-06T13:28:30.315Z,99778.84
2022-09-06T13:31:07.005Z,99774.03
2022-09-06T13:33:36.055Z,99759.94
2022-09-06T13:36:12.294Z,99780.06
2022-09-06T13:38:42.378Z,99775.63
2022-09-06T13:41:25.079Z,99773.63
2022-09-06T13:44:04.607Z,99769.19
2022-09-06T13:46:36.484Z,99764.75
2022-09-06T13:49:11.025Z,99765.56
2022-09-06T13:51:43.271Z,99771.59
2022-09-06T13:54:13.150Z,99757.94
2022-09-06T13:56:41.789Z,99765.16
2022-09-06T13:59:12.413Z,99762.38
2022-09-06T14:01:42.749Z,99751.50
2022-09-06T14:04:12.887Z,99751.09
2022-09-06T14:06:40.677Z,99754.31
2022-09-06T14:09:12.655Z,99755.13
2022-09-06T14:11:47.530Z,99752.31
2022-09-06T14:14:39.443Z,99749.50
2022-09-06T14:17:15.402Z,99739.44
2022-09-06T14:19:46.488Z,99744.66
2022-09-06T14:22:15.890Z,99738.59
2022-09-06T14:24:43.996Z,99720.50
2022-09-06T14:27:36.674Z,99732.16
2022-09-06T14:30:05.036Z,99722.88
2022-09-06T14:32:33.012Z,99719.69
2022-09-06T14:35:02.238Z,99726.91
2022-09-06T14:37:30.421Z,99717.22
2022-09-06T14:40:29.337Z,99732.09
2022-09-06T14:42:58.444Z,99720.84
2022-09-06T14:45:25.868Z,99720.44
2022-09-06T14:47:53.719Z,99714.84
2022-09-06T14:50:21.848Z,99716.03
2022-09-06T14:52:49.317Z,99720.47
2022-09-06T14:55:18.092Z,99714.03
2022-09-06T14:57:46.145Z,99726.50
2022-09-06T15:00:14.391Z,99715.63
2022-09-06T15:02:41.958Z,99711.66
2022-09-06T15:05:11.050Z,99716.09
2022-09-06T15:07:38.611Z,99703.59
2022-09-06T15:10:06.600Z,99712.47
2022-09-06T15:12:33.997Z,99711.66
2022-09-06T15:15:03.108Z,99705.63
2022-09-06T15:17:31.689Z,99702.88
2022-09-06T15:19:58.811Z,99714.94
2022-09-06T15:22:26.905Z,99705.66
2022-09-06T15:24:54.506Z,99698.03
2022-09-06T15:27:21.692Z,99713.31
2022-09-06T15:29:48.951Z,99706.47
2022-09-06T15:32:16.082Z,99711.66
2022-09-06T15:34:43.582Z,99713.28
2022-09-06T15:37:11.152Z,99712.84
2022-09-06T15:39:38.448Z,99712.44
2022-09-06T15:42:06.398Z,99709.19
2022-09-06T15:44:34.578Z,99708.38
2022-09-06T15:47:02.032Z,99717.22
2022-09-06T15:49:31.961Z,99722.44
2022-09-06T15:52:02.187Z,99722.78
2022-09-06T15:54:48.717Z,99713.50
2022-09-06T15:57:17.123Z,99718.31
2022-09-06T15:59:45.189Z,99722.72
2022-09-06T16:02:13.440Z,99713.84
2022-09-06T16:04:40.750Z,99715.06
2022-09-06T16:07:08.805Z,99704.22
2022-09-06T16:09:36.166Z,99703.78
2022-09-06T16:12:03.864Z,99704.53
2022-09-06T16:14:31.803Z,99703.72
2022-09-06T16:16:59.251Z,99697.63
2022-09-06T16:19:26.800Z,99694.34
2022-09-06T16:21:54.328Z,99680.59
2022-09-06T16:24:22.838Z,99675.72
2022-09-06T16:26:50.576Z,99700.19
2022-09-06T16:29:19.275Z,99698.13
2022-09-06T16:31:47.811Z,99692.47
2022-09-06T16:34:15.805Z,99694.81
2022-09-06T16:36:43.065Z,99681.06
2022-09-06T16:39:11.105Z,99681.81
2022-09-06T16:41:41.440Z,99685.72
2022-09-06T16:44:10.575Z,99676.72
2022-09-06T16:46:40.210Z,99683.88
2022-09-06T16:49:07.546Z,99680.22
2022-09-06T16:51:34.811Z,99682.16
2022-09-06T16:54:02.944Z,99671.56
2022-09-06T16:56:36.111Z,99691.09
2022-09-06T16:59:08.325Z,99687.41
2022-09-06T17:01:37.398Z,99689.66
2022-09-06T17:04:05.811Z,99691.94
2022-09-06T17:06:38.469Z,99698.63
2022-09-06T17:09:05.753Z,99700.88
2022-09-06T17:11:32.981Z,99703.84
2022-09-06T17:14:04.082Z,99709.81
2022-09-06T17:16:49.765Z,99713.28
2022-09-06T17:19:22.979Z,99712.69
2022-09-06T17:21:50.796Z,99720.22
2022-09-06T17:24:18.381Z,99718.19
2022-09-06T17:26:46.207Z,99728.94
2022-09-06T17:29:13.373Z,99735.16
2022-09-06T17:31:40.782Z,99752.75
2022-09-06T17:34:08.121Z,99754.88
2022-09-06T17:36:38.990Z,99750.91
2022-09-06T17:39:14.015Z,99751.66
2022-09-06T17:41:45.766Z,99746.25
2022-09-06T17:44:15.489Z,99774.34
2022-09-06T17:46:57.100Z,99768.09
2022-09-06T17:49:31.111Z,99770.69
2022-09-06T17:51:58.638Z,99777.25
2022-09-06T17:54:26.011Z,99778.00
2022-09-06T17:56:53.439Z,99778.22
2022-09-06T17:59:20.646Z,99775.19
2022-09-06T18:01:48.018Z,99776.72
2022-09-06T18:04:15.457Z,99799.97
2022-09-06T18:06:43.663Z,99795.78
2022-09-06T18:09:14.869Z,99790.06
2022-09-06T18:11:45.760Z,99793.28
2022-09-06T18:14:16.987Z,99793.72
2022-09-06T18:16:47.197Z,99799.09
2022-09-06T18:19:16.149Z,99809.53
2022-09-06T18:21:43.715Z,99806.66
2022-09-06T18:24:13.869Z,99805.50
2022-09-06T18:26:43.137Z,99796.66
2022-09-06T18:29:17.874Z,99804.16
2022-09-06T18:31:46.528Z,99797.19
2022-09-06T18:34:16.606Z,99798.75
2022-09-06T18:36:45.255Z,99798.75
2022-09-06T18:39:13.402Z,99797.00
2022-09-06T18:42:00.311Z,99800.34
2022-09-06T18:44:32.300Z,99784.69
2022-09-06T18:47:07.971Z,99793.72
2022-09-06T18:49:38.506Z,99796.75
2022-09-06T18:52:07.956Z,99792.22
2022-09-06T18:54:36.649Z,99789.75
2022-09-06T18:57:04.673Z,99803.41
2022-09-06T18:59:32.278Z,99798.75
2022-09-06T19:01:59.960Z,99798.03
2022-09-06T19:04:28.637Z,99805.03
2022-09-06T19:06:56.023Z,99805.19
2022-09-06T19:09:23.768Z,99804.19
2022-09-06T19:11:52.896Z,99807.16
2022-09-06T19:14:20.680Z,99812.13
2022-09-06T19:16:50.218Z,99823.53
2022-09-06T19:19:18.322Z,99816.97
2022-09-06T19:21:45.761Z,99824.41
2022-09-06T19:24:15.204Z,99805.97
2022-09-06T19:26:44.338Z,99819.47
2022-09-06T19:29:17.207Z,99816.94
2022-09-06T19:31:46.455Z,99811.38
2022-09-06T19:34:19.126Z,99819.47
2022-09-06T19:36:46.423Z,99821.69
2022-09-06T19:39:15.874Z,99804.50
2022-09-06T19:41:45.285Z,99820.75
2022-09-06T19:44:14.050Z,99821.47
2022-09-06T19:46:45.626Z,99808.03
2022-09-06T19:49:19.297Z,99809.56
2022-09-06T19:51:49.222Z,99813.06
2022-09-06T19:54:17.754Z,99820.41
2022-09-06T19:56:46.786Z,99822.47
2022-09-06T19:59:15.407Z,99815.75
2022-09-06T20:01:44.580Z,99814.22
2022-09-06T20:04:13.929Z,99797.47
2022-09-06T20:06:41.406Z,99813.56
2022-09-06T20:09:10.462Z,99826.59
2022-09-06T20:11:39.379Z,99832.28
2022-09-06T20:14:07.293Z,99825.81
2022-09-06T20:16:38.099Z,99823.72
2022-09-06T20:19:07.951Z,99809.34
2022-09-06T20:21:35.118Z,99813.97
2022-09-06T20:24:02.513Z,99814.63
2022-09-06T20:26:30.595Z,99793.09
2022-09-06T20:29:03.301Z,99810.06
2022-09-06T20:31:31.858Z,99812.97
2022-09-06T20:34:01.123Z,99817.09
2022-09-06T20:36:28.930Z,99817.31
2022-09-06T20:38:56.357Z,99813.72
2022-09-06T20:41:25.687Z,99820.34
2022-09-06T20:43:57.758Z,99816.97
2022-09-06T20:46:31.265Z,99820.34
2022-09-06T20:49:02.015Z,99805.16
2022-09-06T20:51:29.487Z,99825.91
2022-09-06T20:53:58.999Z,99815.94
2022-09-06T20:56:29.155Z,99809.09
2022-09-06T20:59:00.716Z,99819.75
2022-09-06T21:01:34.795Z,99815.47
2022-09-06T21:04:04.169Z,99824.84
2022-09-06T21:06:36.330Z,99825.44
2022-09-06T21:09:12.331Z,99814.53
2022-09-06T21:11:40.160Z,99820.91
2022-09-06T21:14:08.035Z,99811.28
2022-09-06T21:16:35.338Z,99806.16
2022-09-06T21:19:05.640Z,99811.19
2022-09-06T21:21:34.714Z,99803.31
2022-09-06T21:24:03.878Z,99812.78
2022-09-06T21:26:31.213Z,99814.03
2022-09-06T21:28:58.880Z,99816.78
2022-09-06T21:31:36.103Z,99825.59
2022-09-06T21:34:06.877Z,99827.44
2022-09-06T21:36:36.505Z,99833.44
2022-09-06T21:39:15.290Z,99829.13
2022-09-06T21:41:43.561Z,99839.09
2022-09-06T21:44:12.218Z,99827.16
2022-09-06T21:46:40.323Z,99832.72
2022-09-06T21:49:10.383Z,99835.84
2022-09-06T21:51:38.814Z,99831.44
2022-09-06T21:54:06.571Z,99841.84
2022-09-06T21:56:36.020Z,99835.34
2022-09-06T21:59:04.859Z,99845.38
2022-09-06T22:01:34.157Z,99836.66
2022-09-06T22:04:02.441Z,99846.13
2022-09-06T22:06:31.814Z,99838.69
2022-09-06T22:09:01.346Z,99840.03
2022-09-06T22:11:31.872Z,99843.28
2022-09-06T22:14:04.046Z,99837.59
2022-09-06T22:16:33.583Z,99823.28
2022-09-06T22:19:01.572Z,99831.41
2022-09-06T22:21:29.066Z,99831.91
2022-09-06T22:24:01.488Z,99826.00
2022-09-06T22:26:30.829Z,99841.19
2022-09-06T22:29:03.390Z,99824.59
2022-09-06T22:31:32.166Z,99830.94
2022-09-06T22:33:59.858Z,99827.50
2022-09-06T22:36:27.762Z,99812.19
2022-09-06T22:38:58.731Z,99829.78
2022-09-06T22:41:32.299Z,99835.25
2022-09-06T22:44:01.068Z,99837.28
2022-09-06T22:46:29.112Z,99824.88
2022-09-06T22:48:56.467Z,99819.88
2022-09-06T22:51:23.709Z,99804.75
2022-09-06T22:53:51.047Z,99831.72
2022-09-06T22:56:18.179Z,99827.53
2022-09-06T22:58:45.462Z,99835.84
2022-09-06T23:01:14.857Z,99822.50
2022-09-06T23:03:42.812Z,99833.22
2022-09-06T23:06:10.788Z,99830.81
2022-09-06T23:08:39.847Z,99818.63
2022-09-06T23:11:09.806Z,99817.84
2022-09-06T23:13:37.342Z,99812.84
2022-09-06T23:16:11.327Z,99814.97
2022-09-06T23:18:38.767Z,99815.50
2022-09-06T23:21:11.928Z,99809.00
2022-09-06T23:23:40.238Z,99811.75
2022-09-06T23:26:09.914Z,99812.09
2022-09-06T23:28:37.667Z,99806.25
2022-09-06T23:31:07.049Z,99799.75
2022-09-06T23:33:36.336Z,99806.78
2022-09-06T23:36:05.659Z,99794.75
2022-09-06T23:38:37.624Z,99797.03
2022-09-06T23:41:05.989Z,99802.44
2022-09-06T23:43:33.363Z,99795.59
2022-09-06T23:46:00.982Z,99779.66
2022-09-06T23:48:29.340Z,99794.00
2022-09-06T23:50:57.041Z,99790.56
2022-09-06T23:53:24.302Z,99782.09
2022-09-06T23:55:51.535Z,99777.06
2022-09-06T23:58:18.774Z,99785.06
